Archival Weather

Kayes/Dag-Dag

Kayes/Dag-Dag, Mali (GAKD)

Report from: Thursday, September 21, 2023 10:00 PM UTC
Current time: Sunday, May 19, 2024 7:22 AM UTC

Current weather – Weather history – Daily summaries
Weather forecast

Temperature29.0°C (84.2°F)
Heat index34.6°C (94.3°F)
Dew point25.0°C (77.0°F)
Winds 4 kts (2.1 m/s, 4.6 mph) Northwest (320°)
Clouds Sky clear
Altimeter29.94 in.Hg (1014 mB)
Relative humidity79 %
Density altitude2,005 ft. (611 m)
Remarks Ceiling and visibility OK
Flight conditions Visual Meteorological Conditions
Raw dataGAKD 212200Z 32004KT CAVOK 29/25 Q1014
An error has occurred. This application may no longer respond until reloaded. Reload 🗙